Time;durP1;ratioP1;P1;durP2;ratioP2;P2;SDS_P1;SDS_P2;PMS_P1;PMS_P2;Temp;Humidity;BMP_temperature;BMP_pressure;BME280_temperature;BME280_humidity;BME280_pressure;Samples;Min_cycle;Max_cycle;Signal;HPM_P1;HPM_P2
2022/03/22 00:01:38;;;;;;;9.63;7.55;;;18.30;42.90;17.30;102753.00;;;;5052356;28;20389;-63
2022/03/22 00:04:24;;;;;;;13.02;8.02;;;18.30;42.80;17.30;102754.00;;;;5054474;28;20613;-63
2022/03/22 00:07:10;;;;;;;10.80;7.93;;;18.20;42.80;17.30;102758.00;;;;5059356;28;20418;-63
2022/03/22 00:09:56;;;;;;;11.85;8.60;;;18.30;42.80;17.30;102765.00;;;;5042056;28;20039;-63
2022/03/22 00:12:42;;;;;;;11.88;8.60;;;18.30;42.80;17.30;102767.00;;;;5057531;28;20445;-63
2022/03/22 00:15:28;;;;;;;10.43;8.30;;;18.20;42.80;17.30;102770.00;;;;5056094;28;20127;-63
2022/03/22 00:18:14;;;;;;;11.80;7.50;;;18.30;42.80;17.30;102774.00;;;;5058633;28;20052;-64
2022/03/22 00:21:01;;;;;;;11.52;7.82;;;18.20;42.80;17.30;102773.00;;;;5057241;28;20493;-63
2022/03/22 00:23:47;;;;;;;10.63;7.97;;;18.30;42.80;17.30;102766.00;;;;5055406;28;20036;-63
2022/03/22 00:26:33;;;;;;;10.25;7.65;;;18.30;42.80;17.30;102769.00;;;;5049396;28;20127;-63
2022/03/22 00:29:19;;;;;;;11.43;8.13;;;18.30;42.70;17.30;102761.00;;;;5062123;28;20049;-63
2022/03/22 00:32:08;;;;;;;8.98;7.50;;;18.30;42.70;17.30;102777.00;;;;5045464;28;20041;-63
2022/03/22 00:34:57;;;;;;;11.48;7.90;;;18.30;42.70;17.30;102771.00;;;;5052816;28;20091;-63
2022/03/22 00:37:43;;;;;;;10.50;7.95;;;18.10;42.60;17.30;102769.00;;;;5051072;28;20037;-63
2022/03/22 00:40:29;;;;;;;11.13;8.40;;;18.30;42.70;17.30;102762.00;;;;5057173;28;20037;-63
2022/03/22 00:43:15;;;;;;;12.77;8.75;;;18.20;42.60;17.30;102778.00;;;;5054621;28;20052;-63
2022/03/22 00:46:02;;;;;;;9.73;7.65;;;18.20;42.60;17.30;102775.00;;;;5046613;28;20040;-63
2022/03/22 00:48:48;;;;;;;10.60;8.23;;;18.30;42.70;17.30;102776.00;;;;5059736;28;20084;-63
2022/03/22 00:51:35;;;;;;;9.98;8.27;;;18.20;42.60;17.30;102768.00;;;;5054001;28;20542;-63
2022/03/22 00:54:23;;;;;;;11.97;7.93;;;18.30;42.60;17.30;102775.00;;;;5056253;28;20044;-63
2022/03/22 00:57:09;;;;;;;11.82;8.20;;;18.30;42.60;17.30;102773.00;;;;5061398;28;20449;-63
2022/03/22 01:00:01;;;;;;;11.65;8.32;;;18.30;42.60;17.30;102775.00;;;;5052426;28;20032;-63
2022/03/22 01:02:51;;;;;;;9.75;7.57;;;18.30;42.60;17.30;102766.00;;;;5062118;28;20390;-63
2022/03/22 01:05:37;;;;;;;11.13;8.38;;;18.20;42.50;17.30;102771.00;;;;5044052;28;20048;-63
2022/03/22 01:08:23;;;;;;;12.15;7.85;;;18.20;42.50;17.30;102776.00;;;;5058498;28;20049;-63
2022/03/22 01:11:09;;;;;;;11.45;8.68;;;18.20;42.50;17.30;102778.00;;;;5058539;28;20050;-63
2022/03/22 01:13:56;;;;;;;13.68;8.25;;;18.20;42.50;17.30;102777.00;;;;5056619;28;20049;-64
2022/03/22 01:16:42;;;;;;;11.85;8.45;;;18.20;42.50;17.30;102766.00;;;;5060637;28;20036;-63
2022/03/22 01:19:28;;;;;;;11.52;8.07;;;18.20;42.50;17.30;102769.00;;;;5052837;28;20032;-63
2022/03/22 01:22:16;;;;;;;9.75;8.00;;;18.20;42.40;17.30;102775.00;;;;5043381;28;20048;-63
2022/03/22 01:25:02;;;;;;;10.85;8.07;;;18.20;42.40;17.30;102770.00;;;;5056954;28;20079;-63
2022/03/22 01:27:48;;;;;;;10.52;8.15;;;18.20;42.40;17.30;102777.00;;;;5064302;28;20313;-64
2022/03/22 01:30:35;;;;;;;12.02;8.52;;;18.20;42.40;17.30;102767.00;;;;5059396;28;20044;-63
2022/03/22 01:33:21;;;;;;;11.70;8.00;;;18.20;42.40;17.30;102765.00;;;;5060494;28;20041;-63
2022/03/22 01:36:07;;;;;;;11.90;7.90;;;18.20;42.30;17.30;102765.00;;;;5059407;28;20033;-63
2022/03/22 01:38:53;;;;;;;11.65;8.18;;;18.30;42.40;17.30;102763.00;;;;5056420;28;20129;-63
2022/03/22 01:41:39;;;;;;;11.50;8.50;;;18.20;42.30;17.30;102764.00;;;;5057039;28;20040;-64
2022/03/22 01:44:26;;;;;;;11.75;7.53;;;18.20;42.30;17.30;102762.00;;;;5067224;28;20044;-63
2022/03/22 01:47:12;;;;;;;11.18;7.90;;;18.30;42.30;17.30;102760.00;;;;5059064;28;20043;-63
2022/03/22 01:49:58;;;;;;;11.38;8.02;;;18.20;42.30;17.30;102765.00;;;;5047316;28;20037;-63
2022/03/22 01:52:44;;;;;;;11.38;7.93;;;18.20;42.30;17.30;102758.00;;;;5061533;28;20431;-63
2022/03/22 01:55:30;;;;;;;11.18;8.32;;;18.20;42.20;17.30;102758.00;;;;5063279;28;20060;-63
2022/03/22 01:58:16;;;;;;;12.38;8.93;;;18.20;42.20;17.30;102755.00;;;;5065111;28;20479;-63
2022/03/22 02:07:11;;;;;;;10.77;7.93;;;18.20;42.20;17.20;102756.00;;;;5053210;28;20152;-63
2022/03/22 02:09:57;;;;;;;11.18;8.30;;;18.20;42.30;17.20;102754.00;;;;5045350;28;20068;-63
2022/03/22 02:12:46;;;;;;;10.43;8.10;;;18.10;42.20;17.20;102742.00;;;;5061356;28;20445;-64
2022/03/22 02:15:32;;;;;;;11.02;8.43;;;18.20;42.20;17.20;102745.00;;;;5058910;28;20434;-63
2022/03/22 02:18:18;;;;;;;11.05;8.30;;;18.20;42.20;17.20;102751.00;;;;5065824;28;20513;-63
2022/03/22 02:21:04;;;;;;;12.48;8.95;;;18.10;42.20;17.20;102754.00;;;;5060216;28;20040;-63
2022/03/22 02:23:52;;;;;;;9.98;8.13;;;18.20;42.20;17.20;102756.00;;;;5042318;28;20041;-63
2022/03/22 02:26:38;;;;;;;11.90;8.50;;;18.20;42.20;17.20;102753.00;;;;5046972;28;20070;-63
2022/03/22 02:29:24;;;;;;;11.18;8.52;;;18.10;42.20;17.20;102755.00;;;;5054955;28;20071;-63
2022/03/22 02:32:10;;;;;;;11.65;8.10;;;18.10;42.20;17.20;102753.00;;;;5060277;28;20049;-63
2022/03/22 02:34:57;;;;;;;11.07;8.55;;;18.10;42.20;17.20;102754.00;;;;5055944;28;20037;-64
2022/03/22 02:37:43;;;;;;;11.13;8.18;;;18.10;42.20;17.20;102755.00;;;;5062426;28;20032;-63
2022/03/22 02:40:29;;;;;;;11.90;9.18;;;18.10;42.20;17.20;102745.00;;;;5056607;28;20111;-63
2022/03/22 02:43:15;;;;;;;11.05;7.78;;;18.10;42.20;17.20;102752.00;;;;5065087;28;20048;-63
2022/03/22 02:46:01;;;;;;;12.07;8.25;;;18.10;42.20;17.20;102744.00;;;;5049507;28;20397;-63
2022/03/22 02:48:47;;;;;;;11.57;7.65;;;18.10;42.20;17.20;102752.00;;;;5059599;28;20041;-63
2022/03/22 02:51:33;;;;;;;13.65;9.18;;;18.10;42.10;17.20;102757.00;;;;5059096;28;20334;-63
2022/03/22 02:54:19;;;;;;;10.35;8.18;;;18.10;42.20;17.20;102757.00;;;;5061942;28;20048;-63
2022/03/22 02:57:05;;;;;;;13.23;7.97;;;18.10;42.10;17.20;102759.00;;;;5065470;28;20095;-63
2022/03/22 02:59:51;;;;;;;10.95;8.20;;;18.10;42.10;17.20;102750.00;;;;5056959;28;20037;-63
2022/03/22 03:02:55;;;;;;;11.30;8.07;;;18.10;42.10;17.20;102757.00;;;;5064831;28;20453;-63
2022/03/22 03:05:41;;;;;;;10.43;7.82;;;18.10;42.00;17.20;102754.00;;;;5045570;28;20040;-63
2022/03/22 03:08:27;;;;;;;13.55;8.10;;;18.10;42.00;17.20;102763.00;;;;5057055;28;20043;-63
2022/03/22 03:11:13;;;;;;;11.77;8.35;;;18.10;42.00;17.20;102755.00;;;;5065909;28;20052;-63
2022/03/22 03:17:08;;;;;;;10.73;8.27;;;18.10;42.00;17.20;102756.00;;;;5060125;28;20039;-63
2022/03/22 03:19:54;;;;;;;12.80;7.95;;;18.10;41.90;17.20;102749.00;;;;5042161;28;20071;-64
2022/03/22 03:22:43;;;;;;;11.18;8.43;;;18.20;42.00;17.20;102755.00;;;;5056191;28;20521;-63
2022/03/22 03:25:29;;;;;;;12.45;8.48;;;18.10;42.00;17.20;102754.00;;;;5060063;28;20497;-63
2022/03/22 03:28:16;;;;;;;11.05;7.97;;;18.10;41.90;17.20;102760.00;;;;5052985;28;20036;-63
2022/03/22 03:31:02;;;;;;;11.10;8.15;;;18.10;42.00;17.20;102768.00;;;;5056791;28;20059;-63
2022/03/22 03:33:48;;;;;;;11.68;8.73;;;18.10;41.90;17.20;102764.00;;;;5059180;28;20379;-63
2022/03/22 03:36:34;;;;;;;12.02;8.02;;;18.10;41.90;17.20;102765.00;;;;5055002;28;20044;-63
2022/03/22 03:39:20;;;;;;;13.52;8.23;;;18.10;41.90;17.20;102769.00;;;;5061368;28;20480;-63
2022/03/22 03:42:06;;;;;;;11.52;8.00;;;18.10;41.90;17.20;102772.00;;;;5059968;28;20051;-63
2022/03/22 03:47:57;;;;;;;10.93;8.00;;;18.10;41.80;17.20;102767.00;;;;5061526;28;20084;-63
2022/03/22 03:50:44;;;;;;;10.30;7.82;;;18.10;41.80;17.20;102774.00;;;;5039263;28;20036;-63
2022/03/22 03:53:30;;;;;;;12.00;8.37;;;18.10;41.80;17.10;102774.00;;;;5066559;28;20045;-63
2022/03/22 03:56:16;;;;;;;10.43;8.05;;;18.10;41.70;17.20;102775.00;;;;5061838;28;20036;-63
2022/03/22 03:59:02;;;;;;;10.98;8.23;;;18.10;41.70;17.20;102771.00;;;;5061175;28;20033;-63
2022/03/22 04:01:49;;;;;;;11.40;7.97;;;18.10;41.70;17.20;102777.00;;;;5069247;28;20040;-63
2022/03/22 04:04:35;;;;;;;10.65;7.95;;;18.10;41.70;17.20;102775.00;;;;5044493;28;20040;-63
2022/03/22 04:07:23;;;;;;;11.70;8.38;;;18.00;41.60;17.20;102779.00;;;;5055283;28;20076;-63
2022/03/22 04:10:09;;;;;;;;;;;18.00;41.60;17.10;102780.00;;;;5062775;28;20118;-63
2022/03/22 04:12:55;;;;;;;8.93;6.88;;;18.10;41.80;17.10;102775.00;;;;5060698;28;19979;-63
2022/03/22 04:15:41;;;;;;;11.07;7.70;;;18.10;41.60;17.10;102779.00;;;;5061037;28;20067;-63
2022/03/22 04:18:30;;;;;;;10.77;8.05;;;18.10;41.60;17.10;102782.00;;;;5043365;28;20565;-63
2022/03/22 04:21:16;;;;;;;11.00;7.88;;;18.10;41.60;17.10;102788.00;;;;5057006;28;20047;-63
2022/03/22 04:24:07;;;;;;;10.32;7.60;;;18.00;41.50;17.10;102786.00;;;;5054190;28;20040;-64
2022/03/22 04:26:54;;;;;;;12.82;8.25;;;18.00;42.20;17.10;102795.00;;;;5048700;28;20037;-63
2022/03/22 04:32:44;;;;;;;11.50;7.90;;;18.10;41.50;17.10;102796.00;;;;5058921;28;20055;-63
2022/03/22 04:35:30;;;;;;;10.88;8.23;;;18.00;41.50;17.10;102789.00;;;;5062972;28;20090;-63
2022/03/22 04:38:16;;;;;;;11.48;8.27;;;18.00;41.40;17.10;102795.00;;;;5052967;28;20482;-63
2022/03/22 04:41:03;;;;;;;10.38;8.18;;;18.00;41.40;17.10;102794.00;;;;5056444;28;20044;-63
2022/03/22 04:43:49;;;;;;;9.98;8.10;;;18.00;41.40;17.10;102797.00;;;;5061270;28;20077;-63
2022/03/22 04:46:35;;;;;;;11.50;8.45;;;18.00;41.40;17.10;102799.00;;;;5061029;28;20078;-63
2022/03/22 04:49:21;;;;;;;11.18;7.85;;;18.00;41.40;17.10;102795.00;;;;5056224;28;20134;-63
2022/03/22 04:58:16;;;;;;;9.32;7.38;;;18.00;41.40;17.10;102795.00;;;;5053803;28;20036;-63
2022/03/22 05:01:03;;;;;;;11.63;8.05;;;18.00;41.40;17.10;102795.00;;;;5055632;28;20040;-63
2022/03/22 05:03:49;;;;;;;12.75;8.35;;;18.00;41.40;17.10;102798.00;;;;5059543;28;20045;-63
2022/03/22 05:06:39;;;;;;;12.77;8.57;;;18.00;41.40;17.10;102807.00;;;;5062779;28;20484;-63
2022/03/22 05:09:28;;;;;;;12.23;8.32;;;18.00;41.40;17.10;102807.00;;;;5060395;28;20481;-63
2022/03/22 05:12:14;;;;;;;10.88;8.38;;;18.00;41.40;17.10;102809.00;;;;5061559;28;20037;-63
2022/03/22 05:15:00;;;;;;;9.75;8.02;;;18.00;41.40;17.10;102812.00;;;;5048448;28;20032;-63
2022/03/22 05:17:48;;;;;;;11.07;8.23;;;18.00;41.30;17.10;102807.00;;;;5063931;28;20362;-63
2022/03/22 05:20:34;;;;;;;12.10;8.75;;;18.00;41.30;17.10;102816.00;;;;5065141;28;20044;-63
2022/03/22 05:23:20;;;;;;;10.80;8.38;;;18.00;41.30;17.10;102816.00;;;;5059040;28;20052;-63
2022/03/22 05:26:06;;;;;;;10.35;7.80;;;18.00;41.30;17.10;102811.00;;;;5067411;28;20044;-63
2022/03/22 05:28:53;;;;;;;9.90;7.68;;;17.90;41.20;17.10;102823.00;;;;5058020;28;20098;-63
2022/03/22 05:31:39;;;;;;;13.10;8.43;;;18.00;41.30;17.10;102815.00;;;;5062034;28;20048;-63
2022/03/22 05:34:25;;;;;;;11.30;7.80;;;18.00;41.30;17.10;102818.00;;;;5065001;28;20052;-64
2022/03/22 05:37:13;;;;;;;9.30;7.57;;;17.90;41.20;17.10;102816.00;;;;5064656;28;20037;-63
2022/03/22 05:40:03;;;;;;;12.10;8.13;;;17.90;41.20;17.10;102818.00;;;;5059114;28;20099;-64
2022/03/22 05:42:49;;;;;;;11.20;8.40;;;17.90;41.20;17.00;102822.00;;;;5050278;28;20032;-63
2022/03/22 05:45:36;;;;;;;10.35;8.05;;;17.90;41.20;17.10;102821.00;;;;5060656;27;20052;-63
2022/03/22 05:48:23;;;;;;;14.47;7.93;;;17.90;41.20;17.00;102813.00;;;;5058178;28;20041;-63
2022/03/22 05:51:10;;;;;;;11.13;8.30;;;17.90;41.20;17.00;102819.00;;;;5045777;28;20032;-63
2022/03/22 05:53:56;;;;;;;11.25;8.25;;;17.90;41.20;17.00;102825.00;;;;5061871;28;20032;-63
2022/03/22 05:56:42;;;;;;;12.10;8.63;;;17.90;41.20;17.00;102816.00;;;;5078616;28;20317;-63
2022/03/22 05:59:28;;;;;;;11.45;8.80;;;17.90;41.20;17.00;102815.00;;;;5078975;28;20070;-63
2022/03/22 06:02:14;;;;;;;10.57;8.00;;;17.90;41.20;17.00;102823.00;;;;5082658;28;20478;-63
2022/03/22 06:05:00;;;;;;;12.13;8.00;;;17.90;41.20;17.00;102818.00;;;;5079051;28;20040;-63
2022/03/22 06:07:46;;;;;;;9.40;7.40;;;17.90;41.20;17.00;102821.00;;;;5075407;28;20115;-63
2022/03/22 06:10:32;;;;;;;12.48;7.93;;;17.90;41.20;17.00;102828.00;;;;5065662;28;20474;-63
2022/03/22 06:13:19;;;;;;;12.18;8.25;;;17.90;41.20;17.00;102819.00;;;;5078355;28;20075;-63
2022/03/22 06:16:05;;;;;;;10.63;7.47;;;17.80;41.20;17.00;102819.00;;;;5057578;28;20052;-63
2022/03/22 06:18:51;;;;;;;10.48;8.30;;;17.80;41.20;17.00;102818.00;;;;5057561;28;20060;-63
2022/03/22 06:21:37;;;;;;;10.35;8.10;;;17.80;41.20;17.00;102829.00;;;;5048323;28;20036;-63
2022/03/22 06:24:23;;;;;;;12.25;8.50;;;17.80;41.20;17.00;102833.00;;;;5061648;28;20064;-63
2022/03/22 06:27:10;;;;;;;13.93;8.43;;;17.80;41.20;17.00;102836.00;;;;5066787;28;20104;-63
2022/03/22 06:29:56;;;;;;;11.20;8.57;;;17.80;41.20;17.00;102834.00;;;;5063641;28;20075;-63
2022/03/22 06:33:13;;;;;;;10.85;7.85;;;17.80;41.20;16.90;102844.00;;;;5076454;28;20071;-63
2022/03/22 06:35:59;;;;;;;10.93;7.45;;;17.80;41.20;16.90;102837.00;;;;5061883;28;20045;-63
2022/03/22 06:38:45;;;;;;;11.52;7.85;;;17.80;41.30;16.90;102845.00;;;;5034027;28;20942;-63
2022/03/22 06:41:31;;;;;;;10.57;8.43;;;17.80;41.20;16.90;102847.00;;;;5065156;28;20052;-64
2022/03/22 06:44:18;;;;;;;10.35;7.97;;;17.70;41.20;16.90;102857.00;;;;5060674;28;20426;-63
2022/03/22 06:47:04;;;;;;;13.80;8.15;;;17.80;41.30;16.90;102856.00;;;;5061084;28;20048;-63
2022/03/22 06:49:50;;;;;;;12.02;8.23;;;17.80;41.30;16.90;102858.00;;;;5061271;28;20076;-63
2022/03/22 06:52:36;;;;;;;10.80;8.15;;;17.80;41.30;16.90;102862.00;;;;5056596;28;20447;-63
2022/03/22 06:55:23;;;;;;;10.45;7.93;;;17.80;41.30;16.90;102860.00;;;;5056848;28;20037;-63
2022/03/22 06:58:09;;;;;;;12.65;8.65;;;17.80;41.30;16.90;102859.00;;;;5063253;28;20044;-63
2022/03/22 07:00:55;;;;;;;12.35;7.65;;;17.80;41.30;16.90;102858.00;;;;5043466;28;20363;-63
2022/03/22 07:03:41;;;;;;;11.25;8.60;;;17.80;41.30;16.90;102862.00;;;;5046770;28;20331;-63
2022/03/22 07:06:27;;;;;;;10.20;7.82;;;17.80;41.30;16.90;102866.00;;;;5057924;28;20479;-64
2022/03/22 07:09:13;;;;;;;10.75;7.50;;;17.80;41.20;16.90;102868.00;;;;5055014;28;20100;-63
2022/03/22 07:12:00;;;;;;;11.57;8.63;;;17.80;41.20;16.90;102871.00;;;;5065027;28;20134;-63
2022/03/22 07:14:46;;;;;;;10.77;8.25;;;17.80;41.20;16.90;102874.00;;;;5056696;28;20044;-63
2022/03/22 07:17:32;;;;;;;11.05;8.07;;;17.70;41.10;16.90;102880.00;;;;5064145;28;20036;-63
2022/03/22 07:20:19;;;;;;;10.75;8.10;;;17.80;41.10;16.90;102867.00;;;;5051061;28;20037;-64
2022/03/22 07:23:05;;;;;;;10.70;8.23;;;17.90;41.20;16.90;102874.00;;;;5045109;28;20048;-64
2022/03/22 07:25:51;;;;;;;12.68;7.93;;;17.80;41.10;16.90;102879.00;;;;5045375;28;20089;-64
2022/03/22 07:28:37;;;;;;;11.70;7.65;;;17.80;41.10;17.00;102882.00;;;;5055078;28;20119;-63
2022/03/22 07:31:23;;;;;;;12.27;9.07;;;17.90;41.10;17.00;102896.00;;;;5060701;28;20067;-64
2022/03/22 07:34:12;;;;;;;12.20;8.32;;;17.90;41.10;17.00;102895.00;;;;5053764;28;20048;-64
2022/03/22 07:36:58;;;;;;;9.60;7.18;;;17.90;41.10;17.00;102891.00;;;;5056237;28;20486;-63
2022/03/22 07:39:44;;;;;;;11.57;7.93;;;17.90;41.10;17.00;102899.00;;;;5057771;28;20036;-63
2022/03/22 07:42:30;;;;;;;11.15;8.13;;;17.90;41.00;17.00;102896.00;;;;5065965;28;20048;-64
2022/03/22 07:45:19;;;;;;;10.93;7.90;;;17.90;41.00;17.00;102900.00;;;;5056509;28;20496;-64
2022/03/22 07:48:05;;;;;;;10.85;8.20;;;17.90;41.00;17.00;102895.00;;;;5044216;28;20048;-64
2022/03/22 07:54:00;;;;;;;11.10;8.00;;;17.90;41.00;17.00;102889.00;;;;5060742;28;20052;-63
2022/03/22 07:56:46;;;;;;;11.55;8.30;;;17.90;41.00;17.00;102887.00;;;;5039265;28;20521;-63
2022/03/22 07:59:33;;;;;;;11.20;8.10;;;17.90;41.00;17.00;102887.00;;;;5058581;28;20048;-63
2022/03/22 08:02:19;;;;;;;10.75;8.10;;;17.90;41.00;17.00;102896.00;;;;5049282;28;20039;-63
2022/03/22 08:05:05;;;;;;;10.50;7.85;;;17.90;41.00;17.00;102889.00;;;;5056555;28;20545;-63
2022/03/22 08:07:53;;;;;;;12.18;8.48;;;17.90;41.00;17.00;102890.00;;;;5058447;28;20036;-63
2022/03/22 08:10:39;;;;;;;11.90;8.63;;;18.00;41.00;17.00;102898.00;;;;5045336;28;20043;-63
2022/03/22 08:13:26;;;;;;;11.40;8.80;;;18.00;41.00;17.00;102898.00;;;;5060209;28;20131;-64
2022/03/22 08:16:14;;;;;;;11.48;8.23;;;18.00;41.00;17.00;102903.00;;;;5052905;28;20049;-63
2022/03/22 08:19:00;;;;;;;11.82;8.90;;;18.00;41.00;17.00;102905.00;;;;5053595;28;20040;-64
2022/03/22 08:21:48;;;;;;;12.43;8.52;;;18.00;41.00;17.00;102905.00;;;;5059328;28;20035;-64
2022/03/22 08:24:34;;;;;;;;;;;18.00;41.00;17.00;102904.00;;;;5061502;28;20049;-63
2022/03/22 08:27:20;;;;;;;12.27;8.45;;;18.00;41.10;17.00;102901.00;;;;5058113;28;19924;-64
2022/03/22 08:30:06;;;;;;;12.30;8.45;;;18.00;40.90;17.00;102896.00;;;;5051893;28;20186;-63
2022/03/22 08:33:00;;;;;;;11.63;8.48;;;18.00;40.90;17.00;102898.00;;;;5061788;28;20110;-63
2022/03/22 08:35:47;;;;;;;10.82;8.02;;;18.00;40.90;17.00;102901.00;;;;5041248;28;20516;-64
2022/03/22 08:38:33;;;;;;;11.57;8.02;;;18.00;41.00;17.00;102906.00;;;;5045794;28;20066;-64
2022/03/22 08:41:19;;;;;;;11.07;7.97;;;18.00;41.00;17.00;102905.00;;;;5056754;28;20513;-63
2022/03/22 08:44:05;;;;;;;11.70;8.57;;;18.00;40.90;17.00;102895.00;;;;5059622;28;20049;-64
2022/03/22 08:46:51;;;;;;;10.77;8.10;;;18.00;41.60;17.10;102900.00;;;;5058952;28;20040;-63
2022/03/22 08:49:37;;;;;;;13.00;8.75;;;18.00;41.00;17.00;102902.00;;;;5059516;28;20047;-63
2022/03/22 08:52:23;;;;;;;12.95;8.52;;;18.00;40.90;17.10;102896.00;;;;5062172;28;20032;-63
2022/03/22 08:55:14;;;;;;;11.85;8.48;;;18.00;40.90;17.10;102895.00;;;;5059803;28;20043;-64
2022/03/22 08:58:07;;;;;;;12.75;8.20;;;18.00;40.90;17.10;102895.00;;;;5059276;28;20029;-63
2022/03/22 09:00:53;;;;;;;12.38;8.63;;;18.00;40.90;17.10;102899.00;;;;5051012;28;20032;-64
2022/03/22 09:03:39;;;;;;;10.98;8.48;;;18.00;40.90;17.10;102896.00;;;;5060402;28;20044;-63
2022/03/22 09:06:25;;;;;;;12.10;8.50;;;18.00;40.90;17.10;102897.00;;;;5048721;28;20123;-63
2022/03/22 09:09:13;;;;;;;10.90;7.80;;;18.10;41.00;17.10;102889.00;;;;5057611;28;20130;-63
2022/03/22 09:11:59;;;;;;;10.55;7.90;;;18.00;40.90;17.10;102899.00;;;;5061155;28;20237;-64
2022/03/22 09:14:45;;;;;;;12.40;8.23;;;18.10;40.90;17.10;102896.00;;;;5064078;28;20044;-63
2022/03/22 09:17:31;;;;;;;13.07;8.30;;;18.00;40.80;17.10;102888.00;;;;5063209;28;20036;-64
2022/03/22 09:20:17;;;;;;;13.20;8.70;;;18.10;40.90;17.10;102880.00;;;;5049838;28;20045;-63
2022/03/22 09:23:03;;;;;;;11.80;8.05;;;18.10;40.90;17.10;102886.00;;;;5056202;28;20041;-64
2022/03/22 09:25:50;;;;;;;10.45;7.97;;;18.10;40.90;17.10;102880.00;;;;5065446;28;20111;-63
2022/03/22 09:28:37;;;;;;;15.07;7.95;;;18.10;40.90;17.10;102881.00;;;;5050068;28;20040;-63
2022/03/22 09:31:24;;;;;;;10.90;7.47;;;18.10;40.90;17.10;102872.00;;;;5044624;28;20106;-63
2022/03/22 09:34:11;;;;;;;9.45;7.93;;;18.00;40.80;17.10;102869.00;;;;5043649;28;20047;-63
2022/03/22 09:36:59;;;;;;;10.38;8.13;;;18.10;40.90;17.10;102869.00;;;;5054274;28;20477;-63
2022/03/22 09:39:45;;;;;;;10.47;7.73;;;18.10;40.90;17.10;102870.00;;;;5060254;28;20508;-64
2022/03/22 09:42:51;;;;;;;11.52;7.65;;;18.20;40.90;17.10;102875.00;;;;5055058;28;20278;-64
2022/03/22 09:45:38;;;;;;;11.80;7.82;;;18.10;40.80;17.10;102867.00;;;;5057669;28;20067;-63
2022/03/22 09:48:24;;;;;;;13.52;8.57;;;18.10;40.70;17.10;102866.00;;;;5061620;28;20312;-63
2022/03/22 09:54:18;;;;;;;12.57;8.40;;;18.10;40.70;17.10;102868.00;;;;5051830;28;20111;-64
2022/03/22 09:57:05;;;;;;;12.98;8.50;;;18.20;40.70;17.10;102866.00;;;;5055774;28;20367;-64
2022/03/22 09:59:51;;;;;;;13.77;8.77;;;18.10;40.60;17.10;102870.00;;;;5052446;28;20119;-63
2022/03/22 10:02:37;;;;;;;13.35;8.48;;;18.10;40.60;17.10;102875.00;;;;5064705;28;20400;-63
2022/03/22 10:05:23;;;;;;;10.07;7.47;;;18.10;40.60;17.10;102864.00;;;;5062780;28;20052;-63
2022/03/22 10:08:09;;;;;;;11.15;7.88;;;18.10;40.60;17.10;102865.00;;;;5058383;28;20037;-64
2022/03/22 10:11:01;;;;;;;11.43;8.10;;;18.10;40.60;17.10;102870.00;;;;5068120;28;20043;-63
2022/03/22 10:13:54;;;;;;;11.60;7.40;;;18.10;40.60;17.20;102866.00;;;;5043376;28;20037;-63
2022/03/22 10:16:51;;;;;;;9.95;7.50;;;18.10;40.50;17.10;102858.00;;;;5064966;28;20082;-63
2022/03/22 10:19:50;;;;;;;10.35;8.05;;;18.10;40.60;17.20;102865.00;;;;5038748;28;20426;-63
2022/03/22 10:22:37;;;;;;;9.00;7.10;;;18.10;41.30;17.10;102859.00;;;;5058003;28;20134;-64
2022/03/22 10:25:23;;;;;;;11.52;7.75;;;18.20;40.70;17.20;102857.00;;;;5059344;28;20056;-64
2022/03/22 10:28:09;;;;;;;11.48;7.72;;;18.20;41.40;17.10;102858.00;;;;5046268;28;20481;-63
2022/03/22 10:30:56;;;;;;;12.10;7.18;;;18.20;40.70;17.20;102852.00;;;;5058776;28;20075;-64
2022/03/22 10:33:52;;;;;;;9.53;6.73;;;18.20;40.70;17.20;102859.00;;;;5054906;28;20390;-63
2022/03/22 10:36:39;;;;;;;10.80;7.13;;;18.20;40.60;17.20;102853.00;;;;5042895;28;20033;-63
2022/03/22 10:39:25;;;;;;;10.18;7.60;;;18.20;40.60;17.20;102849.00;;;;5059772;28;20480;-63
2022/03/22 10:42:11;;;;;;;9.80;7.22;;;18.20;40.60;17.20;102848.00;;;;5054661;28;20402;-63
2022/03/22 10:44:58;;;;;;;8.65;6.13;;;18.10;40.60;17.20;102848.00;;;;5058780;28;20041;-64
2022/03/22 10:47:44;;;;;;;10.73;7.55;;;18.20;40.60;17.20;102848.00;;;;5041498;28;20051;-63
2022/03/22 10:50:30;;;;;;;13.30;8.02;;;18.20;40.70;17.20;102838.00;;;;5047145;28;20041;-63
2022/03/22 10:53:19;;;;;;;9.87;7.23;;;18.20;40.70;17.20;102845.00;;;;5048451;28;20045;-63
2022/03/22 10:56:05;;;;;;;;;;;18.20;40.70;17.20;102840.00;;;;5054481;28;20279;-64
2022/03/22 10:58:55;;;;;;;10.93;7.15;;;18.20;40.70;17.20;102843.00;;;;5061801;28;19916;-63
2022/03/22 11:01:43;;;;;;;12.25;6.63;;;18.20;40.60;17.20;102840.00;;;;5065622;28;20047;-64
2022/03/22 11:04:29;;;;;;;7.63;6.53;;;18.20;40.60;17.20;102835.00;;;;5059266;28;20049;-63
2022/03/22 11:07:18;;;;;;;7.53;6.05;;;18.20;40.60;17.20;102838.00;;;;5078690;28;20041;-63
2022/03/22 11:10:05;;;;;;;11.30;6.90;;;18.20;41.40;17.20;102840.00;;;;5060970;28;20033;-64
2022/03/22 11:12:54;;;;;;;8.50;6.45;;;18.20;40.70;17.20;102832.00;;;;5040551;28;20076;-63
2022/03/22 11:15:42;;;;;;;9.88;6.57;;;18.20;40.70;17.20;102839.00;;;;5063016;28;20040;-64
2022/03/22 11:18:28;;;;;;;10.57;6.43;;;18.20;40.70;17.20;102827.00;;;;5060059;28;20040;-63
2022/03/22 11:21:18;;;;;;;9.18;5.60;;;18.20;40.70;17.20;102825.00;;;;5048039;28;20397;-64
2022/03/22 11:24:09;;;;;;;7.28;5.95;;;18.20;40.70;17.20;102828.00;;;;5035278;28;20064;-64
2022/03/22 11:26:56;;;;;;;8.75;7.05;;;18.30;40.80;17.20;102832.00;;;;5062099;28;20040;-64
2022/03/22 11:29:42;;;;;;;7.78;5.97;;;18.30;40.80;17.20;102825.00;;;;5060452;28;20048;-64
2022/03/22 11:35:51;;;;;;;8.25;5.93;;;18.30;40.80;17.20;102811.00;;;;5036999;28;20123;-63
2022/03/22 11:38:50;;;;;;;9.20;6.00;;;18.30;40.80;17.20;102812.00;;;;5054411;28;20442;-64
2022/03/22 11:44:41;;;;;;;8.07;5.57;;;18.30;40.70;17.20;102802.00;;;;5062433;28;20439;-63
2022/03/22 11:47:41;;;;;;;9.32;6.18;;;18.30;40.70;17.20;102806.00;;;;5048233;28;20049;-64
2022/03/22 11:50:27;;;;;;;9.48;5.68;;;18.40;40.80;17.30;102809.00;;;;5045469;28;20068;-64
2022/03/22 11:53:20;;;;;;;8.52;5.72;;;18.30;40.70;17.30;102810.00;;;;5024709;28;20225;-63
2022/03/22 11:56:06;;;;;;;8.98;5.55;;;18.40;40.80;17.30;102807.00;;;;5041524;28;20025;-63
2022/03/22 11:58:52;;;;;;;7.15;5.68;;;18.40;40.80;17.30;102805.00;;;;5047773;28;20061;-63
2022/03/22 12:01:39;;;;;;;8.38;6.15;;;18.40;40.80;17.30;102807.00;;;;5059991;28;20043;-64
2022/03/22 12:04:36;;;;;;;8.70;6.00;;;18.40;40.80;17.30;102797.00;;;;5062493;28;20119;-63
2022/03/22 12:07:30;;;;;;;8.45;6.10;;;18.40;40.80;17.30;102792.00;;;;5034168;28;20040;-63
2022/03/22 12:10:19;;;;;;;8.25;5.70;;;18.40;40.70;17.30;102800.00;;;;5063718;28;20295;-63
2022/03/22 12:13:05;;;;;;;6.00;5.15;;;18.40;40.80;17.30;102790.00;;;;5060680;28;20372;-64
2022/03/22 12:16:17;;;;;;;8.43;5.63;;;18.40;40.80;17.30;102788.00;;;;5063190;28;20033;-63
2022/03/22 12:19:04;;;;;;;7.22;5.32;;;18.40;40.80;17.30;102783.00;;;;5037411;28;20037;-64
2022/03/22 12:21:54;;;;;;;10.30;6.00;;;18.40;40.80;17.30;102791.00;;;;5058254;28;20040;-63
2022/03/22 12:24:40;;;;;;;7.05;5.13;;;18.40;40.70;17.30;102789.00;;;;5059260;28;20174;-64
2022/03/22 12:27:26;;;;;;;8.85;5.75;;;18.40;40.70;17.30;102770.00;;;;5063380;28;20045;-64
2022/03/22 12:30:12;;;;;;;7.55;5.47;;;18.50;40.70;17.30;102781.00;;;;5056421;28;20048;-64
2022/03/22 12:33:18;;;;;;;6.90;4.97;;;18.40;40.70;17.30;102782.00;;;;5057569;28;20048;-64
2022/03/22 12:36:04;;;;;;;7.72;5.57;;;18.40;40.60;17.40;102773.00;;;;5052995;28;20037;-64
2022/03/22 12:38:50;;;;;;;6.97;5.25;;;18.50;40.70;17.30;102770.00;;;;5041755;28;20037;-64
2022/03/22 12:41:37;;;;;;;7.50;5.70;;;18.50;40.70;17.40;102759.00;;;;5064472;28;20036;-64
2022/03/22 12:44:25;;;;;;;8.60;5.50;;;18.50;40.70;17.40;102753.00;;;;5045839;28;20638;-63